Terminal Aerodrome Forecast
Issued by NWS

Home | Current Version | Previous Version | Text Only | Print | Product List | Glossary On
Versions: 1 2 3 4 5 6 7 8 9 10 11 12 13 14 15 16 17 18 19
000
FTUS41 KBTV 242331
TAFMPV
TAF
KMPV 242331Z 2500/2524 VRB04KT P6SM VCSH BKN090
     FM250200 00000KT P6SM SCT100
     FM250500 00000KT 5SM BR SCT010
     FM250700 00000KT 1/2SM FG OVC001
     FM251200 VRB03KT 3SM BR SCT001
     FM251330 28005KT P6SM SKC
     FM251800 30010KT P6SM BKN150
     FM252100 31009KT P6SM VCSH BKN080=

USA.gov is the U.S. government's official web portal to all federal, state and local government web resources and services.